sensor_id;sensor_type;location;lat;lon;timestamp;P1;durP1;ratioP1;P2;durP2;ratioP2
47625;SDS011;33342;45.574;9.252;2022-10-24T00:01:17;23.10;;;15.48;;
47625;SDS011;33342;45.574;9.252;2022-10-24T00:03:46;24.60;;;13.73;;
47625;SDS011;33342;45.574;9.252;2022-10-24T00:06:14;22.05;;;14.70;;
47625;SDS011;33342;45.574;9.252;2022-10-24T00:08:42;24.08;;;14.07;;
47625;SDS011;33342;45.574;9.252;2022-10-24T00:11:11;21.73;;;14.00;;
47625;SDS011;33342;45.574;9.252;2022-10-24T00:13:43;24.15;;;15.57;;
47625;SDS011;33342;45.574;9.252;2022-10-24T00:16:11;24.85;;;15.38;;
47625;SDS011;33342;45.574;9.252;2022-10-24T00:18:38;26.08;;;14.25;;
47625;SDS011;33342;45.574;9.252;2022-10-24T00:21:06;20.23;;;13.63;;
47625;SDS011;33342;45.574;9.252;2022-10-24T00:23:33;23.75;;;15.10;;
47625;SDS011;33342;45.574;9.252;2022-10-24T00:26:00;24.17;;;15.55;;
47625;SDS011;33342;45.574;9.252;2022-10-24T00:28:30;21.13;;;14.60;;
47625;SDS011;33342;45.574;9.252;2022-10-24T00:30:59;24.45;;;15.95;;
47625;SDS011;33342;45.574;9.252;2022-10-24T00:33:26;22.42;;;15.43;;
47625;SDS011;33342;45.574;9.252;2022-10-24T00:35:54;24.73;;;15.60;;
47625;SDS011;33342;45.574;9.252;2022-10-24T00:38:20;25.80;;;15.23;;
47625;SDS011;33342;45.574;9.252;2022-10-24T00:40:48;24.30;;;15.30;;
47625;SDS011;33342;45.574;9.252;2022-10-24T00:43:19;30.52;;;15.02;;
47625;SDS011;33342;45.574;9.252;2022-10-24T00:45:54;25.58;;;14.68;;
47625;SDS011;33342;45.574;9.252;2022-10-24T00:48:35;22.13;;;15.93;;
47625;SDS011;33342;45.574;9.252;2022-10-24T00:51:07;20.63;;;15.23;;
47625;SDS011;33342;45.574;9.252;2022-10-24T00:53:37;25.52;;;14.80;;
47625;SDS011;33342;45.574;9.252;2022-10-24T00:56:10;27.55;;;17.00;;
47625;SDS011;33342;45.574;9.252;2022-10-24T00:58:40;22.60;;;15.18;;
47625;SDS011;33342;45.574;9.252;2022-10-24T01:01:10;22.70;;;15.07;;
47625;SDS011;33342;45.574;9.252;2022-10-24T01:03:39;21.58;;;15.65;;
47625;SDS011;33342;45.574;9.252;2022-10-24T01:08:44;28.08;;;17.17;;
47625;SDS011;33342;45.574;9.252;2022-10-24T01:14:12;24.40;;;15.15;;
47625;SDS011;33342;45.574;9.252;2022-10-24T01:17:02;23.85;;;16.15;;
47625;SDS011;33342;45.574;9.252;2022-10-24T01:31:50;24.25;;;16.45;;
47625;SDS011;33342;45.574;9.252;2022-10-24T01:34:45;27.88;;;15.85;;
47625;SDS011;33342;45.574;9.252;2022-10-24T01:37:29;21.85;;;15.10;;
47625;SDS011;33342;45.574;9.252;2022-10-24T01:40:01;24.45;;;16.08;;
47625;SDS011;33342;45.574;9.252;2022-10-24T01:42:42;26.52;;;16.60;;
47625;SDS011;33342;45.574;9.252;2022-10-24T01:45:12;26.35;;;16.83;;
47625;SDS011;33342;45.574;9.252;2022-10-24T01:47:45;25.10;;;16.25;;
47625;SDS011;33342;45.574;9.252;2022-10-24T01:50:19;25.48;;;15.85;;
47625;SDS011;33342;45.574;9.252;2022-10-24T01:52:49;25.60;;;16.17;;
47625;SDS011;33342;45.574;9.252;2022-10-24T01:55:18;26.30;;;15.85;;
47625;SDS011;33342;45.574;9.252;2022-10-24T01:57:45;21.80;;;16.70;;
47625;SDS011;33342;45.574;9.252;2022-10-24T02:00:15;23.85;;;16.48;;
47625;SDS011;33342;45.574;9.252;2022-10-24T02:03:08;24.95;;;17.08;;
47625;SDS011;33342;45.574;9.252;2022-10-24T02:06:07;26.00;;;17.13;;
47625;SDS011;33342;45.574;9.252;2022-10-24T02:08:40;21.80;;;16.98;;
47625;SDS011;33342;45.574;9.252;2022-10-24T02:11:11;28.48;;;17.80;;
47625;SDS011;33342;45.574;9.252;2022-10-24T02:13:40;22.13;;;17.63;;
47625;SDS011;33342;45.574;9.252;2022-10-24T02:16:10;23.20;;;17.83;;
47625;SDS011;33342;45.574;9.252;2022-10-24T02:18:41;26.33;;;18.50;;
47625;SDS011;33342;45.574;9.252;2022-10-24T02:24:05;29.95;;;18.45;;
47625;SDS011;33342;45.574;9.252;2022-10-24T02:29:39;27.33;;;19.27;;
47625;SDS011;33342;45.574;9.252;2022-10-24T02:32:13;30.10;;;19.60;;
47625;SDS011;33342;45.574;9.252;2022-10-24T02:34:44;29.15;;;19.42;;
47625;SDS011;33342;45.574;9.252;2022-10-24T02:37:14;27.15;;;20.02;;
47625;SDS011;33342;45.574;9.252;2022-10-24T02:39:43;26.35;;;19.67;;
47625;SDS011;33342;45.574;9.252;2022-10-24T02:42:13;26.77;;;18.83;;
47625;SDS011;33342;45.574;9.252;2022-10-24T02:44:41;27.88;;;19.17;;
47625;SDS011;33342;45.574;9.252;2022-10-24T02:47:14;28.40;;;18.95;;
47625;SDS011;33342;45.574;9.252;2022-10-24T02:49:44;28.13;;;19.77;;
47625;SDS011;33342;45.574;9.252;2022-10-24T02:52:12;31.02;;;20.27;;
47625;SDS011;33342;45.574;9.252;2022-10-24T02:54:39;28.63;;;19.05;;
47625;SDS011;33342;45.574;9.252;2022-10-24T02:57:06;27.67;;;19.10;;
47625;SDS011;33342;45.574;9.252;2022-10-24T02:59:34;28.05;;;19.08;;
47625;SDS011;33342;45.574;9.252;2022-10-24T03:02:01;30.20;;;18.77;;
47625;SDS011;33342;45.574;9.252;2022-10-24T03:04:28;28.83;;;19.90;;
47625;SDS011;33342;45.574;9.252;2022-10-24T03:06:55;29.95;;;19.48;;
47625;SDS011;33342;45.574;9.252;2022-10-24T03:09:22;26.75;;;20.42;;
47625;SDS011;33342;45.574;9.252;2022-10-24T03:11:49;25.55;;;18.65;;
47625;SDS011;33342;45.574;9.252;2022-10-24T03:14:16;25.67;;;19.17;;
47625;SDS011;33342;45.574;9.252;2022-10-24T03:16:43;31.92;;;20.25;;
47625;SDS011;33342;45.574;9.252;2022-10-24T03:19:10;32.75;;;20.45;;
47625;SDS011;33342;45.574;9.252;2022-10-24T03:21:37;25.52;;;18.35;;
47625;SDS011;33342;45.574;9.252;2022-10-24T03:24:05;29.45;;;19.85;;
47625;SDS011;33342;45.574;9.252;2022-10-24T03:26:38;29.13;;;19.38;;
47625;SDS011;33342;45.574;9.252;2022-10-24T03:29:07;32.03;;;21.77;;
47625;SDS011;33342;45.574;9.252;2022-10-24T03:31:34;26.70;;;20.48;;
47625;SDS011;33342;45.574;9.252;2022-10-24T03:34:01;27.58;;;20.35;;
47625;SDS011;33342;45.574;9.252;2022-10-24T03:36:29;32.67;;;21.00;;
47625;SDS011;33342;45.574;9.252;2022-10-24T03:38:56;33.38;;;21.63;;
47625;SDS011;33342;45.574;9.252;2022-10-24T03:41:23;27.60;;;21.63;;
47625;SDS011;33342;45.574;9.252;2022-10-24T03:43:53;33.33;;;20.92;;
47625;SDS011;33342;45.574;9.252;2022-10-24T03:46:20;30.60;;;20.80;;
47625;SDS011;33342;45.574;9.252;2022-10-24T03:48:47;30.80;;;20.35;;
47625;SDS011;33342;45.574;9.252;2022-10-24T03:51:14;24.30;;;19.73;;
47625;SDS011;33342;45.574;9.252;2022-10-24T03:53:41;29.23;;;20.65;;
47625;SDS011;33342;45.574;9.252;2022-10-24T03:56:08;25.85;;;19.52;;
47625;SDS011;33342;45.574;9.252;2022-10-24T03:58:35;28.05;;;20.00;;
47625;SDS011;33342;45.574;9.252;2022-10-24T04:05:17;29.75;;;19.52;;
47625;SDS011;33342;45.574;9.252;2022-10-24T04:07:44;28.25;;;19.15;;
47625;SDS011;33342;45.574;9.252;2022-10-24T04:10:12;28.90;;;19.25;;
47625;SDS011;33342;45.574;9.252;2022-10-24T04:12:39;24.90;;;19.55;;
47625;SDS011;33342;45.574;9.252;2022-10-24T04:15:09;27.40;;;19.40;;
47625;SDS011;33342;45.574;9.252;2022-10-24T04:17:36;28.13;;;19.15;;
47625;SDS011;33342;45.574;9.252;2022-10-24T04:20:06;25.45;;;19.05;;
47625;SDS011;33342;45.574;9.252;2022-10-24T04:22:33;28.00;;;19.27;;
47625;SDS011;33342;45.574;9.252;2022-10-24T04:25:00;26.08;;;18.85;;
47625;SDS011;33342;45.574;9.252;2022-10-24T04:27:27;26.83;;;18.30;;
47625;SDS011;33342;45.574;9.252;2022-10-24T04:29:55;28.13;;;19.60;;
47625;SDS011;33342;45.574;9.252;2022-10-24T04:32:22;30.73;;;19.52;;
47625;SDS011;33342;45.574;9.252;2022-10-24T04:34:49;27.73;;;19.42;;
47625;SDS011;33342;45.574;9.252;2022-10-24T04:37:16;31.77;;;20.10;;
47625;SDS011;33342;45.574;9.252;2022-10-24T04:39:43;25.83;;;18.92;;
47625;SDS011;33342;45.574;9.252;2022-10-24T04:42:10;28.83;;;18.50;;
47625;SDS011;33342;45.574;9.252;2022-10-24T04:44:37;28.98;;;19.40;;
47625;SDS011;33342;45.574;9.252;2022-10-24T04:47:04;29.58;;;19.25;;
47625;SDS011;33342;45.574;9.252;2022-10-24T04:49:31;27.77;;;18.83;;
47625;SDS011;33342;45.574;9.252;2022-10-24T04:51:58;29.40;;;19.63;;
47625;SDS011;33342;45.574;9.252;2022-10-24T04:54:25;31.95;;;18.67;;
47625;SDS011;33342;45.574;9.252;2022-10-24T04:56:52;27.05;;;18.65;;
47625;SDS011;33342;45.574;9.252;2022-10-24T04:59:19;30.20;;;20.23;;
47625;SDS011;33342;45.574;9.252;2022-10-24T05:01:46;25.33;;;18.50;;
47625;SDS011;33342;45.574;9.252;2022-10-24T05:04:14;29.73;;;18.90;;
47625;SDS011;33342;45.574;9.252;2022-10-24T05:06:41;26.70;;;19.13;;
47625;SDS011;33342;45.574;9.252;2022-10-24T05:09:10;30.85;;;20.48;;
47625;SDS011;33342;45.574;9.252;2022-10-24T05:11:38;31.65;;;20.23;;
47625;SDS011;33342;45.574;9.252;2022-10-24T05:14:05;29.77;;;18.85;;
47625;SDS011;33342;45.574;9.252;2022-10-24T05:16:32;32.42;;;20.00;;
47625;SDS011;33342;45.574;9.252;2022-10-24T05:18:59;27.15;;;17.98;;
47625;SDS011;33342;45.574;9.252;2022-10-24T05:21:26;25.50;;;18.60;;
47625;SDS011;33342;45.574;9.252;2022-10-24T05:23:53;30.13;;;19.00;;
47625;SDS011;33342;45.574;9.252;2022-10-24T05:26:20;27.17;;;18.42;;
47625;SDS011;33342;45.574;9.252;2022-10-24T05:28:47;30.83;;;18.70;;
47625;SDS011;33342;45.574;9.252;2022-10-24T05:31:18;28.52;;;19.45;;
47625;SDS011;33342;45.574;9.252;2022-10-24T05:33:45;30.52;;;19.05;;
47625;SDS011;33342;45.574;9.252;2022-10-24T05:36:12;28.17;;;20.00;;
47625;SDS011;33342;45.574;9.252;2022-10-24T05:38:39;30.30;;;19.15;;
47625;SDS011;33342;45.574;9.252;2022-10-24T05:41:06;26.33;;;19.17;;
47625;SDS011;33342;45.574;9.252;2022-10-24T05:43:33;31.42;;;19.58;;
47625;SDS011;33342;45.574;9.252;2022-10-24T05:46:00;23.92;;;18.63;;
47625;SDS011;33342;45.574;9.252;2022-10-24T05:48:27;28.58;;;19.42;;
47625;SDS011;33342;45.574;9.252;2022-10-24T05:50:55;30.48;;;18.92;;
47625;SDS011;33342;45.574;9.252;2022-10-24T05:53:24;30.55;;;18.45;;
47625;SDS011;33342;45.574;9.252;2022-10-24T05:55:52;27.35;;;19.90;;
47625;SDS011;33342;45.574;9.252;2022-10-24T05:58:19;29.10;;;18.77;;
47625;SDS011;33342;45.574;9.252;2022-10-24T06:00:48;26.35;;;18.80;;
47625;SDS011;33342;45.574;9.252;2022-10-24T06:03:19;26.02;;;18.85;;
47625;SDS011;33342;45.574;9.252;2022-10-24T06:05:47;25.10;;;18.33;;
47625;SDS011;33342;45.574;9.252;2022-10-24T06:08:17;29.15;;;19.05;;
47625;SDS011;33342;45.574;9.252;2022-10-24T06:10:45;29.90;;;18.75;;
47625;SDS011;33342;45.574;9.252;2022-10-24T06:13:16;27.35;;;17.80;;
47625;SDS011;33342;45.574;9.252;2022-10-24T06:15:43;30.90;;;20.00;;
47625;SDS011;33342;45.574;9.252;2022-10-24T06:18:10;27.33;;;18.48;;
47625;SDS011;33342;45.574;9.252;2022-10-24T06:20:40;29.30;;;18.83;;
47625;SDS011;33342;45.574;9.252;2022-10-24T06:23:07;27.52;;;19.55;;
47625;SDS011;33342;45.574;9.252;2022-10-24T06:25:34;23.77;;;17.55;;
47625;SDS011;33342;45.574;9.252;2022-10-24T06:28:01;27.00;;;17.75;;
47625;SDS011;33342;45.574;9.252;2022-10-24T06:30:28;26.00;;;17.88;;
47625;SDS011;33342;45.574;9.252;2022-10-24T06:32:55;28.65;;;18.90;;
47625;SDS011;33342;45.574;9.252;2022-10-24T06:35:22;29.63;;;19.23;;
47625;SDS011;33342;45.574;9.252;2022-10-24T06:37:49;29.50;;;18.15;;
47625;SDS011;33342;45.574;9.252;2022-10-24T06:40:17;26.20;;;18.02;;
47625;SDS011;33342;45.574;9.252;2022-10-24T06:42:44;27.27;;;17.00;;
47625;SDS011;33342;45.574;9.252;2022-10-24T06:45:12;33.55;;;18.73;;
47625;SDS011;33342;45.574;9.252;2022-10-24T06:47:39;27.80;;;18.83;;
47625;SDS011;33342;45.574;9.252;2022-10-24T06:50:06;33.80;;;19.52;;
47625;SDS011;33342;45.574;9.252;2022-10-24T06:52:35;39.22;;;18.85;;
47625;SDS011;33342;45.574;9.252;2022-10-24T06:55:02;32.67;;;20.60;;
47625;SDS011;33342;45.574;9.252;2022-10-24T06:57:30;24.95;;;17.48;;
47625;SDS011;33342;45.574;9.252;2022-10-24T06:59:57;30.38;;;18.02;;
47625;SDS011;33342;45.574;9.252;2022-10-24T07:02:24;27.88;;;17.55;;
47625;SDS011;33342;45.574;9.252;2022-10-24T07:04:51;32.80;;;18.80;;
47625;SDS011;33342;45.574;9.252;2022-10-24T07:07:19;28.55;;;18.10;;
47625;SDS011;33342;45.574;9.252;2022-10-24T07:09:51;26.75;;;17.35;;
47625;SDS011;33342;45.574;9.252;2022-10-24T07:12:20;32.58;;;18.88;;
47625;SDS011;33342;45.574;9.252;2022-10-24T07:14:47;33.55;;;18.52;;
47625;SDS011;33342;45.574;9.252;2022-10-24T07:17:15;30.83;;;17.33;;
47625;SDS011;33342;45.574;9.252;2022-10-24T07:19:43;30.20;;;18.38;;
47625;SDS011;33342;45.574;9.252;2022-10-24T07:22:10;28.83;;;18.95;;
47625;SDS011;33342;45.574;9.252;2022-10-24T07:24:37;27.23;;;17.02;;
47625;SDS011;33342;45.574;9.252;2022-10-24T07:27:04;28.83;;;18.08;;
47625;SDS011;33342;45.574;9.252;2022-10-24T07:29:31;28.40;;;18.42;;
47625;SDS011;33342;45.574;9.252;2022-10-24T07:31:58;29.35;;;18.80;;
47625;SDS011;33342;45.574;9.252;2022-10-24T07:34:25;25.38;;;17.42;;
47625;SDS011;33342;45.574;9.252;2022-10-24T07:36:52;27.20;;;17.92;;
47625;SDS011;33342;45.574;9.252;2022-10-24T07:39:19;29.20;;;17.60;;
47625;SDS011;33342;45.574;9.252;2022-10-24T07:41:46;26.50;;;16.88;;
47625;SDS011;33342;45.574;9.252;2022-10-24T07:44:13;31.15;;;16.27;;
47625;SDS011;33342;45.574;9.252;2022-10-24T07:46:40;25.73;;;16.02;;
47625;SDS011;33342;45.574;9.252;2022-10-24T07:49:08;28.73;;;16.40;;
47625;SDS011;33342;45.574;9.252;2022-10-24T07:51:35;23.15;;;15.73;;
47625;SDS011;33342;45.574;9.252;2022-10-24T07:54:02;25.00;;;15.88;;
47625;SDS011;33342;45.574;9.252;2022-10-24T07:56:29;24.60;;;16.00;;
47625;SDS011;33342;45.574;9.252;2022-10-24T07:58:56;30.63;;;18.98;;
47625;SDS011;33342;45.574;9.252;2022-10-24T08:01:24;27.58;;;16.05;;
47625;SDS011;33342;45.574;9.252;2022-10-24T08:03:55;24.73;;;16.23;;
47625;SDS011;33342;45.574;9.252;2022-10-24T08:06:24;26.92;;;15.45;;
47625;SDS011;33342;45.574;9.252;2022-10-24T08:08:54;28.92;;;16.55;;
47625;SDS011;33342;45.574;9.252;2022-10-24T08:11:23;28.83;;;16.45;;
47625;SDS011;33342;45.574;9.252;2022-10-24T08:13:52;22.38;;;15.50;;
47625;SDS011;33342;45.574;9.252;2022-10-24T08:16:23;23.73;;;15.00;;
47625;SDS011;33342;45.574;9.252;2022-10-24T08:18:54;28.33;;;15.25;;
47625;SDS011;33342;45.574;9.252;2022-10-24T08:21:23;23.88;;;14.75;;
47625;SDS011;33342;45.574;9.252;2022-10-24T08:23:51;21.65;;;15.20;;
47625;SDS011;33342;45.574;9.252;2022-10-24T08:26:20;28.52;;;16.50;;
47625;SDS011;33342;45.574;9.252;2022-10-24T08:28:49;26.50;;;16.35;;
47625;SDS011;33342;45.574;9.252;2022-10-24T08:31:17;22.98;;;16.75;;
47625;SDS011;33342;45.574;9.252;2022-10-24T08:33:46;23.42;;;15.93;;
47625;SDS011;33342;45.574;9.252;2022-10-24T08:38:56;25.00;;;15.68;;
47625;SDS011;33342;45.574;9.252;2022-10-24T08:41:44;27.15;;;16.77;;
47625;SDS011;33342;45.574;9.252;2022-10-24T08:44:29;26.40;;;16.23;;
47625;SDS011;33342;45.574;9.252;2022-10-24T08:50:03;25.17;;;16.10;;
47625;SDS011;33342;45.574;9.252;2022-10-24T08:52:45;26.10;;;17.20;;
47625;SDS011;33342;45.574;9.252;2022-10-24T08:55:21;27.67;;;17.05;;
47625;SDS011;33342;45.574;9.252;2022-10-24T08:58:16;29.98;;;16.67;;
47625;SDS011;33342;45.574;9.252;2022-10-24T09:00:50;29.77;;;16.98;;
47625;SDS011;33342;45.574;9.252;2022-10-24T09:03:29;28.10;;;16.52;;
47625;SDS011;33342;45.574;9.252;2022-10-24T09:06:22;26.08;;;17.83;;
47625;SDS011;33342;45.574;9.252;2022-10-24T09:08:57;28.83;;;17.25;;
47625;SDS011;33342;45.574;9.252;2022-10-24T09:11:33;30.67;;;18.05;;
47625;SDS011;33342;45.574;9.252;2022-10-24T09:14:45;28.30;;;17.88;;
47625;SDS011;33342;45.574;9.252;2022-10-24T09:17:00;32.08;;;18.73;;
47625;SDS011;33342;45.574;9.252;2022-10-24T09:19:39;25.70;;;16.85;;
47625;SDS011;33342;45.574;9.252;2022-10-24T09:22:06;28.05;;;16.77;;
47625;SDS011;33342;45.574;9.252;2022-10-24T09:24:46;30.20;;;18.08;;
47625;SDS011;33342;45.574;9.252;2022-10-24T09:27:25;31.75;;;17.42;;
47625;SDS011;33342;45.574;9.252;2022-10-24T09:29:57;33.20;;;17.45;;
47625;SDS011;33342;45.574;9.252;2022-10-24T09:32:26;29.92;;;17.00;;
47625;SDS011;33342;45.574;9.252;2022-10-24T09:34:59;33.30;;;17.80;;
47625;SDS011;33342;45.574;9.252;2022-10-24T09:37:29;28.98;;;16.90;;
47625;SDS011;33342;45.574;9.252;2022-10-24T09:42:37;29.70;;;16.92;;
47625;SDS011;33342;45.574;9.252;2022-10-24T09:45:29;28.67;;;16.83;;
47625;SDS011;33342;45.574;9.252;2022-10-24T09:47:56;29.92;;;17.77;;
47625;SDS011;33342;45.574;9.252;2022-10-24T09:50:26;25.58;;;17.00;;
47625;SDS011;33342;45.574;9.252;2022-10-24T09:52:56;28.95;;;17.00;;
47625;SDS011;33342;45.574;9.252;2022-10-24T09:55:25;28.05;;;17.55;;
47625;SDS011;33342;45.574;9.252;2022-10-24T09:57:54;29.15;;;17.58;;
47625;SDS011;33342;45.574;9.252;2022-10-24T10:00:31;29.88;;;19.27;;
47625;SDS011;33342;45.574;9.252;2022-10-24T10:03:18;30.42;;;17.67;;
47625;SDS011;33342;45.574;9.252;2022-10-24T10:05:52;25.65;;;17.38;;
47625;SDS011;33342;45.574;9.252;2022-10-24T10:08:28;28.90;;;17.95;;
47625;SDS011;33342;45.574;9.252;2022-10-24T10:11:02;32.42;;;18.33;;
47625;SDS011;33342;45.574;9.252;2022-10-24T10:13:43;30.77;;;17.45;;
47625;SDS011;33342;45.574;9.252;2022-10-24T10:19:12;30.20;;;19.83;;
47625;SDS011;33342;45.574;9.252;2022-10-24T10:35:20;33.80;;;18.88;;
47625;SDS011;33342;45.574;9.252;2022-10-24T10:38:18;26.33;;;19.58;;
47625;SDS011;33342;45.574;9.252;2022-10-24T10:43:55;37.97;;;18.63;;
47625;SDS011;33342;45.574;9.252;2022-10-24T11:00:41;36.38;;;20.50;;
47625;SDS011;33342;45.574;9.252;2022-10-24T11:06:18;47.53;;;28.77;;
47625;SDS011;33342;45.574;9.252;2022-10-24T11:14:56;32.08;;;21.55;;
47625;SDS011;33342;45.574;9.252;2022-10-24T11:20:43;34.05;;;21.80;;
47625;SDS011;33342;45.574;9.252;2022-10-24T11:23:40;33.42;;;21.23;;
47625;SDS011;33342;45.574;9.252;2022-10-24T11:32:00;30.42;;;22.52;;
47625;SDS011;33342;45.574;9.252;2022-10-24T11:34:48;33.83;;;22.17;;
47625;SDS011;33342;45.574;9.252;2022-10-24T11:37:23;30.15;;;22.17;;
47625;SDS011;33342;45.574;9.252;2022-10-24T11:45:32;36.50;;;21.70;;
47625;SDS011;33342;45.574;9.252;2022-10-24T11:56:23;30.15;;;21.15;;
47625;SDS011;33342;45.574;9.252;2022-10-24T11:58:58;33.50;;;20.10;;
47625;SDS011;33342;45.574;9.252;2022-10-24T12:04:33;30.60;;;20.83;;
47625;SDS011;33342;45.574;9.252;2022-10-24T12:07:27;30.83;;;19.42;;
47625;SDS011;33342;45.574;9.252;2022-10-24T12:18:31;31.70;;;20.35;;
47625;SDS011;33342;45.574;9.252;2022-10-24T12:21:06;31.38;;;20.23;;
47625;SDS011;33342;45.574;9.252;2022-10-24T12:23:37;30.00;;;19.27;;
47625;SDS011;33342;45.574;9.252;2022-10-24T12:26:07;30.95;;;19.25;;
47625;SDS011;33342;45.574;9.252;2022-10-24T12:28:53;33.33;;;19.45;;
47625;SDS011;33342;45.574;9.252;2022-10-24T12:31:26;29.75;;;18.42;;
47625;SDS011;33342;45.574;9.252;2022-10-24T12:37:01;36.80;;;19.38;;
47625;SDS011;33342;45.574;9.252;2022-10-24T12:39:41;32.67;;;18.40;;
47625;SDS011;33342;45.574;9.252;2022-10-24T12:43:04;34.88;;;19.52;;
47625;SDS011;33342;45.574;9.252;2022-10-24T12:53:35;30.25;;;17.77;;
47625;SDS011;33342;45.574;9.252;2022-10-24T12:58:23;30.10;;;18.13;;
47625;SDS011;33342;45.574;9.252;2022-10-24T13:00:54;29.48;;;18.05;;
47625;SDS011;33342;45.574;9.252;2022-10-24T13:06:13;31.85;;;18.73;;
47625;SDS011;33342;45.574;9.252;2022-10-24T13:19:40;27.90;;;17.05;;
47625;SDS011;33342;45.574;9.252;2022-10-24T13:22:26;32.60;;;19.05;;
47625;SDS011;33342;45.574;9.252;2022-10-24T13:24:55;28.58;;;18.40;;
47625;SDS011;33342;45.574;9.252;2022-10-24T13:27:24;32.17;;;17.67;;
47625;SDS011;33342;45.574;9.252;2022-10-24T13:32:31;28.73;;;17.33;;
47625;SDS011;33342;45.574;9.252;2022-10-24T13:35:01;26.27;;;17.00;;
47625;SDS011;33342;45.574;9.252;2022-10-24T13:37:40;25.75;;;17.15;;
47625;SDS011;33342;45.574;9.252;2022-10-24T13:45:22;27.23;;;17.15;;
47625;SDS011;33342;45.574;9.252;2022-10-24T13:47:54;43.05;;;19.17;;
47625;SDS011;33342;45.574;9.252;2022-10-24T13:50:50;43.05;;;16.92;;
47625;SDS011;33342;45.574;9.252;2022-10-24T13:53:26;32.65;;;17.25;;
47625;SDS011;33342;45.574;9.252;2022-10-24T13:58:44;29.02;;;16.55;;
47625;SDS011;33342;45.574;9.252;2022-10-24T14:03:53;40.58;;;18.05;;
47625;SDS011;33342;45.574;9.252;2022-10-24T14:06:25;29.40;;;17.15;;
47625;SDS011;33342;45.574;9.252;2022-10-24T14:08:56;30.92;;;16.80;;
47625;SDS011;33342;45.574;9.252;2022-10-24T14:11:32;28.63;;;17.20;;
47625;SDS011;33342;45.574;9.252;2022-10-24T14:14:16;31.23;;;15.75;;
47625;SDS011;33342;45.574;9.252;2022-10-24T14:19:59;34.92;;;16.20;;
47625;SDS011;33342;45.574;9.252;2022-10-24T14:22:36;24.75;;;16.17;;
47625;SDS011;33342;45.574;9.252;2022-10-24T14:25:28;26.05;;;17.05;;
47625;SDS011;33342;45.574;9.252;2022-10-24T14:27:57;33.03;;;17.33;;
47625;SDS011;33342;45.574;9.252;2022-10-24T14:30:27;28.55;;;15.77;;
47625;SDS011;33342;45.574;9.252;2022-10-24T14:33:13;25.35;;;15.63;;
47625;SDS011;33342;45.574;9.252;2022-10-24T14:35:47;45.08;;;17.35;;
47625;SDS011;33342;45.574;9.252;2022-10-24T14:38:20;41.42;;;17.58;;
47625;SDS011;33342;45.574;9.252;2022-10-24T14:40:51;28.48;;;16.70;;
47625;SDS011;33342;45.574;9.252;2022-10-24T14:43:35;29.95;;;17.35;;
47625;SDS011;33342;45.574;9.252;2022-10-24T14:48:41;28.95;;;17.38;;
47625;SDS011;33342;45.574;9.252;2022-10-24T14:51:21;31.73;;;16.17;;
47625;SDS011;33342;45.574;9.252;2022-10-24T14:54:10;27.00;;;16.17;;
47625;SDS011;33342;45.574;9.252;2022-10-24T14:56:45;34.58;;;16.83;;
47625;SDS011;33342;45.574;9.252;2022-10-24T14:59:20;32.08;;;18.40;;
47625;SDS011;33342;45.574;9.252;2022-10-24T15:02:02;25.98;;;16.75;;
47625;SDS011;33342;45.574;9.252;2022-10-24T15:04:44;34.10;;;16.50;;
47625;SDS011;33342;45.574;9.252;2022-10-24T15:07:13;30.55;;;16.55;;
47625;SDS011;33342;45.574;9.252;2022-10-24T15:09:56;31.25;;;16.63;;
47625;SDS011;33342;45.574;9.252;2022-10-24T15:14:54;30.80;;;17.52;;
47625;SDS011;33342;45.574;9.252;2022-10-24T15:20:37;29.48;;;17.58;;
47625;SDS011;33342;45.574;9.252;2022-10-24T15:23:06;27.95;;;16.88;;
47625;SDS011;33342;45.574;9.252;2022-10-24T15:25:43;29.38;;;19.42;;
47625;SDS011;33342;45.574;9.252;2022-10-24T15:31:00;26.73;;;17.15;;
47625;SDS011;33342;45.574;9.252;2022-10-24T15:33:27;31.50;;;17.35;;
47625;SDS011;33342;45.574;9.252;2022-10-24T15:35:54;26.85;;;16.65;;
47625;SDS011;33342;45.574;9.252;2022-10-24T15:38:21;29.30;;;16.77;;
47625;SDS011;33342;45.574;9.252;2022-10-24T15:40:48;28.15;;;17.80;;
47625;SDS011;33342;45.574;9.252;2022-10-24T15:43:16;53.53;;;19.27;;
47625;SDS011;33342;45.574;9.252;2022-10-24T15:45:44;39.42;;;17.23;;
47625;SDS011;33342;45.574;9.252;2022-10-24T15:48:11;38.72;;;17.05;;
47625;SDS011;33342;45.574;9.252;2022-10-24T15:50:42;36.17;;;17.40;;
47625;SDS011;33342;45.574;9.252;2022-10-24T15:53:14;32.17;;;16.67;;
47625;SDS011;33342;45.574;9.252;2022-10-24T15:55:44;26.35;;;16.17;;
47625;SDS011;33342;45.574;9.252;2022-10-24T15:58:12;28.40;;;16.45;;
47625;SDS011;33342;45.574;9.252;2022-10-24T16:00:40;27.23;;;15.15;;
47625;SDS011;33342;45.574;9.252;2022-10-24T16:03:10;26.80;;;16.95;;
47625;SDS011;33342;45.574;9.252;2022-10-24T16:05:43;28.20;;;16.63;;
47625;SDS011;33342;45.574;9.252;2022-10-24T16:08:15;26.02;;;15.88;;
47625;SDS011;33342;45.574;9.252;2022-10-24T16:10:45;28.77;;;16.00;;
47625;SDS011;33342;45.574;9.252;2022-10-24T16:13:16;27.90;;;16.70;;
47625;SDS011;33342;45.574;9.252;2022-10-24T16:15:45;29.20;;;16.10;;
47625;SDS011;33342;45.574;9.252;2022-10-24T16:18:12;46.15;;;18.45;;
47625;SDS011;33342;45.574;9.252;2022-10-24T16:20:40;34.75;;;18.13;;
47625;SDS011;33342;45.574;9.252;2022-10-24T16:23:08;27.17;;;16.75;;
47625;SDS011;33342;45.574;9.252;2022-10-24T16:25:37;29.05;;;17.30;;
47625;SDS011;33342;45.574;9.252;2022-10-24T16:28:05;29.23;;;15.73;;
47625;SDS011;33342;45.574;9.252;2022-10-24T16:30:34;27.30;;;16.83;;
47625;SDS011;33342;45.574;9.252;2022-10-24T16:33:03;30.92;;;16.67;;
47625;SDS011;33342;45.574;9.252;2022-10-24T16:35:31;25.42;;;15.88;;
47625;SDS011;33342;45.574;9.252;2022-10-24T16:38:00;29.88;;;16.80;;
47625;SDS011;33342;45.574;9.252;2022-10-24T16:40:28;28.52;;;15.30;;
47625;SDS011;33342;45.574;9.252;2022-10-24T16:42:57;29.83;;;16.67;;
47625;SDS011;33342;45.574;9.252;2022-10-24T16:45:25;25.58;;;15.65;;
47625;SDS011;33342;45.574;9.252;2022-10-24T16:47:52;28.10;;;16.75;;
47625;SDS011;33342;45.574;9.252;2022-10-24T16:50:22;30.60;;;16.15;;
47625;SDS011;33342;45.574;9.252;2022-10-24T16:52:51;25.38;;;16.20;;
47625;SDS011;33342;45.574;9.252;2022-10-24T16:55:21;30.58;;;16.80;;
47625;SDS011;33342;45.574;9.252;2022-10-24T16:57:48;29.17;;;16.75;;
47625;SDS011;33342;45.574;9.252;2022-10-24T17:00:16;29.23;;;16.65;;
47625;SDS011;33342;45.574;9.252;2022-10-24T17:02:45;28.90;;;16.65;;
47625;SDS011;33342;45.574;9.252;2022-10-24T17:05:20;26.38;;;15.93;;
47625;SDS011;33342;45.574;9.252;2022-10-24T17:07:49;28.58;;;15.70;;
47625;SDS011;33342;45.574;9.252;2022-10-24T17:10:16;30.67;;;16.08;;
47625;SDS011;33342;45.574;9.252;2022-10-24T17:12:49;25.08;;;15.88;;
47625;SDS011;33342;45.574;9.252;2022-10-24T17:15:17;27.98;;;16.35;;
47625;SDS011;33342;45.574;9.252;2022-10-24T17:17:48;34.17;;;16.63;;
47625;SDS011;33342;45.574;9.252;2022-10-24T17:20:15;26.00;;;15.80;;
47625;SDS011;33342;45.574;9.252;2022-10-24T17:22:43;30.33;;;16.13;;
47625;SDS011;33342;45.574;9.252;2022-10-24T17:25:14;28.00;;;15.82;;
47625;SDS011;33342;45.574;9.252;2022-10-24T17:27:44;30.33;;;16.38;;
47625;SDS011;33342;45.574;9.252;2022-10-24T17:30:13;31.58;;;15.77;;
47625;SDS011;33342;45.574;9.252;2022-10-24T17:32:42;28.85;;;15.88;;